Time;durP1;ratioP1;P1;durP2;ratioP2;P2;SDS_P1;SDS_P2;PMS_P1;PMS_P2;Temp;Humidity;BMP_temperature;BMP_pressure;BME280_temperature;BME280_humidity;BME280_pressure;Samples;Min_cycle;Max_cycle;Signal;HPM_P1;HPM_P2
2022/09/27 00:02:12;;;;;;;;;;;7.90;99.90;;;;;;4994090;28;20338;-83
2022/09/27 00:04:37;;;;;;;;;;;7.90;99.90;;;;;;4993730;28;19913;-82
2022/09/27 00:07:04;;;;;;;;;;;7.90;99.90;;;;;;4993608;28;19921;-82
2022/09/27 00:09:29;;;;;;;;;;;7.90;99.90;;;;;;4993841;28;19917;-83
2022/09/27 00:11:55;;;;;;;;;;;7.80;99.90;;;;;;4994056;28;19910;-82
2022/09/27 00:14:21;;;;;;;;;;;7.80;99.90;;;;;;4977325;28;20273;-83
2022/09/27 00:16:46;;;;;;;;;;;7.80;99.90;;;;;;5009758;28;19909;-83
2022/09/27 00:19:13;;;;;;;;;;;7.80;99.90;;;;;;4977693;28;19917;-82
2022/09/27 00:21:39;;;;;;;;;;;7.80;99.90;;;;;;4977154;28;20465;-82
2022/09/27 00:24:05;;;;;;;;;;;7.80;99.90;;;;;;4993587;28;19913;-82
2022/09/27 00:26:31;;;;;;;;;;;7.80;99.90;;;;;;4993871;28;20365;-83
2022/09/27 00:28:57;;;;;;;;;;;7.80;99.90;;;;;;4993727;28;19917;-82
2022/09/27 00:31:24;;;;;;;;;;;7.80;99.90;;;;;;4994793;28;19918;-82
2022/09/27 00:33:51;;;;;;;;;;;7.80;99.90;;;;;;5009452;28;20550;-83
2022/09/27 00:36:17;;;;;;;;;;;7.80;99.90;;;;;;4977026;28;19916;-83
2022/09/27 00:38:43;;;;;;;;;;;7.80;99.90;;;;;;4992668;28;19910;-82
2022/09/27 00:41:15;;;;;;;;;;;7.80;99.90;;;;;;4993277;28;19916;-83
2022/09/27 00:43:50;;;;;;;;;;;7.80;99.90;;;;;;4992978;28;20340;-83
2022/09/27 00:46:21;;;;;;;;;;;7.90;99.90;;;;;;5009516;28;19956;-83
2022/09/27 00:48:48;;;;;;;;;;;7.90;99.90;;;;;;4976543;28;20017;-83
2022/09/27 00:51:14;;;;;;;;;;;7.90;99.90;;;;;;4994104;28;20254;-83
2022/09/27 00:53:48;;;;;;;;;;;7.90;99.90;;;;;;4976841;28;19917;-82
2022/09/27 00:56:17;;;;;;;;;;;7.90;99.90;;;;;;4994255;28;19960;-82
2022/09/27 00:58:46;;;;;;;;;;;7.90;99.90;;;;;;5009184;28;20258;-83
2022/09/27 01:01:12;;;;;;;;;;;7.90;99.90;;;;;;4992818;28;19920;-82
2022/09/27 01:03:38;;;;;;;;;;;7.80;99.90;;;;;;4976551;28;20004;-82
2022/09/27 01:06:05;;;;;;;;;;;7.90;99.90;;;;;;5009279;28;20011;-83
2022/09/27 01:08:31;;;;;;;;;;;7.90;99.90;;;;;;4993048;28;19906;-83
2022/09/27 01:11:18;;;;;;;;;;;7.90;99.90;;;;;;4992721;28;20846;-83
2022/09/27 01:14:03;;;;;;;;;;;7.90;99.90;;;;;;4992477;28;19917;-82
2022/09/27 01:16:35;;;;;;;;;;;7.90;99.90;;;;;;4992636;28;20020;-85
2022/09/27 01:19:24;;;;;;;;;;;7.90;99.90;;;;;;4992635;28;19909;-84
2022/09/27 01:22:08;;;;;;;;;;;7.90;99.90;;;;;;4986521;28;19910;-85
2022/09/27 01:24:37;;;;;;;;;;;7.90;99.90;;;;;;4992828;28;20379;-88
2022/09/27 01:27:23;;;;;;;;;;;7.90;99.90;;;;;;5009367;28;19913;-85
2022/09/27 01:30:08;;;;;;;;;;;7.90;99.90;;;;;;5008268;28;20335;-85
2022/09/27 01:32:34;;;;;;;;;;;7.90;99.90;;;;;;4992104;28;19918;-86
2022/09/27 01:35:26;;;;;;;;;;;7.90;99.90;;;;;;4991882;28;19906;-85
2022/09/27 01:37:55;;;;;;;;;;;7.90;99.90;;;;;;4955189;28;19910;-82
2022/09/27 01:40:31;;;;;;;;;;;7.80;99.90;;;;;;4975243;28;19993;-83
2022/09/27 01:43:20;;;;;;;;;;;7.70;99.90;;;;;;4978875;28;19914;-82
2022/09/27 01:45:48;;;;;;;;;;;7.60;99.90;;;;;;4993930;28;20684;-84
2022/09/27 01:48:40;;;;;;;;;;;7.60;99.90;;;;;;4992614;28;19905;-82
2022/09/27 01:51:17;;;;;;;;;;;7.60;99.90;;;;;;4972805;28;20346;-83
2022/09/27 01:53:45;;;;;;;;;;;7.60;99.90;;;;;;4940838;28;19956;-84
2022/09/27 01:56:42;;;;;;;;;;;7.60;99.90;;;;;;4972568;28;19910;-83
2022/09/27 01:59:21;;;;;;;;;;;7.60;99.90;;;;;;4956538;28;19910;-84
2022/09/27 02:01:59;;;;;;;;;;;7.60;99.90;;;;;;4941975;28;19911;-83
2022/09/27 02:04:31;;;;;;;;;;;7.50;99.90;;;;;;4941249;28;19992;-83
2022/09/27 02:07:10;;;;;;;;;;;7.60;99.90;;;;;;4942009;28;19914;-84
2022/09/27 02:09:47;;;;;;;;;;;7.50;99.90;;;;;;4940791;28;20258;-84
2022/09/27 02:12:19;;;;;;;;;;;7.50;99.90;;;;;;4941048;28;20623;-84
2022/09/27 02:14:56;;;;;;;;;;;7.60;99.90;;;;;;4940587;28;19914;-84
2022/09/27 02:17:42;;;;;;;;;;;7.60;99.90;;;;;;4941253;28;19965;-84
2022/09/27 02:20:16;;;;;;;;;;;7.60;99.90;;;;;;4940860;28;19910;-82
2022/09/27 02:23:00;;;;;;;;;;;7.60;99.90;;;;;;4941479;28;20474;-81
2022/09/27 02:25:35;;;;;;;;;;;7.60;99.90;;;;;;4956736;28;20361;-82
2022/09/27 02:28:02;;;;;;;;;;;7.60;99.90;;;;;;4956759;28;19910;-82
2022/09/27 02:30:32;;;;;;;;;;;7.60;99.90;;;;;;4956456;28;19961;-83
2022/09/27 02:33:11;;;;;;;;;;;7.60;99.90;;;;;;4942262;28;19914;-83
2022/09/27 02:35:36;;;;;;;;;;;7.60;99.90;;;;;;4956681;28;19921;-83
2022/09/27 02:38:03;;;;;;;;;;;7.60;99.90;;;;;;4941161;28;19910;-86
2022/09/27 02:40:31;;;;;;;;;;;7.50;99.90;;;;;;4941899;28;19910;-85
2022/09/27 02:42:58;;;;;;;;;;;7.50;99.90;;;;;;4941095;28;19909;-84
2022/09/27 02:45:26;;;;;;;;;;;7.60;99.90;;;;;;4940546;28;19917;-84
2022/09/27 02:48:04;;;;;;;;;;;7.60;99.90;;;;;;4940568;28;20676;-83
2022/09/27 02:50:41;;;;;;;;;;;7.60;99.90;;;;;;4983727;28;19952;-83
2022/09/27 02:53:28;;;;;;;;;;;7.60;99.90;;;;;;4977840;28;20440;-83
2022/09/27 02:56:22;;;;;;;;;;;7.60;99.90;;;;;;5008501;28;19914;-84
2022/09/27 02:59:14;;;;;;;;;;;7.60;99.90;;;;;;4992139;28;19910;-83
2022/09/27 03:01:53;;;;;;;;;;;7.60;99.90;;;;;;4991497;28;19964;-83
2022/09/27 03:04:33;;;;;;;;;;;7.60;99.90;;;;;;4994830;28;19952;-83
2022/09/27 03:07:00;;;;;;;;;;;7.60;99.90;;;;;;4996198;28;19910;-83
2022/09/27 03:09:39;;;;;;;;;;;7.60;99.90;;;;;;5011550;28;19949;-82
2022/09/27 03:12:04;;;;;;;;;;;7.60;99.90;;;;;;4978854;28;19964;-83
2022/09/27 03:14:30;;;;;;;;;;;7.60;99.90;;;;;;4978189;28;19937;-82
2022/09/27 03:17:04;;;;;;;;;;;7.60;99.90;;;;;;4995322;28;20281;-84
2022/09/27 03:20:02;;;;;;;;;;;7.60;99.90;;;;;;4995615;28;19914;-85
2022/09/27 03:22:50;;;;;;;;;;;7.60;99.90;;;;;;4996199;28;19909;-82
2022/09/27 03:25:16;;;;;;;;;;;7.60;99.90;;;;;;4978476;28;19916;-82
2022/09/27 03:27:42;;;;;;;;;;;7.60;99.90;;;;;;4994919;28;19916;-82
2022/09/27 03:30:09;;;;;;;;;;;7.60;99.90;;;;;;5011086;28;20700;-82
2022/09/27 03:32:35;;;;;;;;;;;7.60;99.90;;;;;;4994684;28;19913;-82
2022/09/27 03:35:24;;;;;;;;;;;7.60;99.90;;;;;;4976605;28;20262;-83
2022/09/27 03:37:50;;;;;;;;;;;7.60;99.90;;;;;;5011283;28;20230;-83
2022/09/27 03:40:16;;;;;;;;;;;7.60;99.90;;;;;;5010866;28;19910;-82
2022/09/27 03:42:42;;;;;;;;;;;7.60;99.90;;;;;;4978252;28;19909;-82
2022/09/27 03:45:08;;;;;;;;;;;7.60;99.90;;;;;;4978349;28;19921;-81
2022/09/27 03:47:34;;;;;;;;;;;7.60;99.90;;;;;;4978085;28;19909;-81
2022/09/27 03:49:59;;;;;;;;;;;7.60;99.90;;;;;;4978068;28;19921;-83
2022/09/27 03:52:25;;;;;;;;;;;7.60;99.90;;;;;;4994613;28;19910;-81
2022/09/27 03:54:51;;;;;;;;;;;7.60;99.90;;;;;;4995603;28;19933;-82
2022/09/27 03:57:17;;;;;;;;;;;7.50;99.90;;;;;;4994774;28;20285;-82
2022/09/27 03:59:42;;;;;;;;;;;7.50;99.90;;;;;;4994686;28;19959;-83
2022/09/27 04:02:34;;;;;;;;;;;7.50;99.90;;;;;;4994563;28;19906;-82
2022/09/27 04:05:36;;;;;;;;;;;7.40;99.90;;;;;;4962602;28;19914;-82
2022/09/27 04:08:06;;;;;;;;;;;7.30;99.90;;;;;;5003634;28;20262;-83
2022/09/27 04:10:32;;;;;;;;;;;7.30;99.90;;;;;;5010913;28;20009;-83
2022/09/27 04:12:59;;;;;;;;;;;7.40;99.90;;;;;;4977925;28;19906;-82
2022/09/27 04:15:28;;;;;;;;;;;7.30;99.90;;;;;;4978765;28;19917;-85
2022/09/27 04:18:23;;;;;;;;;;;7.30;99.90;;;;;;4965250;28;19961;-87
2022/09/27 04:20:49;;;;;;;;;;;7.30;99.90;;;;;;4994365;28;20363;-89
2022/09/27 04:23:14;;;;;;;;;;;7.30;99.90;;;;;;4995066;28;19910;-88
2022/09/27 04:25:48;;;;;;;;;;;7.20;99.90;;;;;;4994939;28;19917;-88
2022/09/27 04:28:19;;;;;;;;;;;7.20;99.90;;;;;;4995301;28;19913;-89
2022/09/27 04:30:45;;;;;;;;;;;7.10;99.90;;;;;;5011351;28;19918;-89
2022/09/27 04:33:11;;;;;;;;;;;7.10;99.90;;;;;;4996634;28;19913;-89
2022/09/27 04:36:25;;;;;;;;;;;7.10;99.90;;;;;;4985991;28;19961;-89
2022/09/27 04:39:24;;;;;;;;;;;7.10;99.90;;;;;;4995368;28;19910;-90
2022/09/27 04:41:50;;;;;;;;;;;7.10;99.90;;;;;;4979737;28;19953;-88
2022/09/27 04:44:15;;;;;;;;;;;7.10;99.90;;;;;;5011993;28;20391;-89
2022/09/27 04:46:45;;;;;;;;;;;7.10;99.90;;;;;;4979720;28;19921;-90
2022/09/27 04:49:11;;;;;;;;;;;7.10;99.90;;;;;;5011620;28;19921;-89
2022/09/27 04:51:37;;;;;;;;;;;7.10;99.90;;;;;;4995366;28;20289;-89
2022/09/27 04:54:03;;;;;;;;;;;7.00;99.90;;;;;;4978107;28;20282;-84
2022/09/27 04:56:32;;;;;;;;;;;7.00;99.90;;;;;;4977908;28;19948;-85
2022/09/27 04:59:00;;;;;;;;;;;7.00;99.90;;;;;;4977314;28;19916;-86
2022/09/27 05:01:26;;;;;;;;;;;7.00;99.90;;;;;;4977212;28;19920;-85
2022/09/27 05:03:57;;;;;;;;;;;6.90;99.90;;;;;;4993506;28;19917;-85
2022/09/27 05:06:24;;;;;;;;;;;7.00;99.90;;;;;;4977378;28;19917;-85
2022/09/27 05:08:53;;;;;;;;;;;6.90;99.90;;;;;;4977466;28;19921;-85
2022/09/27 05:11:25;;;;;;;;;;;7.00;99.90;;;;;;4978278;28;19922;-88
2022/09/27 05:14:09;;;;;;;;;;;6.90;99.90;;;;;;4995673;28;19917;-88
2022/09/27 05:16:54;;;;;;;;;;;6.90;99.90;;;;;;4994857;28;19960;-88
2022/09/27 05:19:41;;;;;;;;;;;6.90;99.90;;;;;;4994720;28;19956;-89
2022/09/27 05:22:13;;;;;;;;;;;6.90;99.90;;;;;;4978546;28;20358;-89
2022/09/27 05:24:39;;;;;;;;;;;7.00;99.90;;;;;;4977850;28;19910;-89
2022/09/27 05:27:07;;;;;;;;;;;7.00;99.90;;;;;;4976159;28;19968;-89
2022/09/27 05:29:33;;;;;;;;;;;7.00;99.90;;;;;;5011032;28;19909;-90
2022/09/27 05:32:09;;;;;;;;;;;6.90;99.90;;;;;;4994487;28;19910;-90
2022/09/27 05:34:35;;;;;;;;;;;6.90;99.90;;;;;;5010970;28;19914;-89
2022/09/27 05:37:01;;;;;;;;;;;6.90;99.90;;;;;;4994078;28;19909;-89
2022/09/27 05:39:30;;;;;;;;;;;7.00;99.90;;;;;;4978275;28;19969;-89
2022/09/27 05:41:56;;;;;;;;;;;7.00;99.90;;;;;;4993476;28;20004;-89
2022/09/27 05:44:22;;;;;;;;;;;6.90;99.90;;;;;;4994134;28;19909;-89
2022/09/27 05:46:55;;;;;;;;;;;6.90;99.90;;;;;;4979167;28;20288;-90
2022/09/27 05:49:21;;;;;;;;;;;7.00;99.90;;;;;;4978004;28;19913;-89
2022/09/27 05:51:47;;;;;;;;;;;7.00;99.90;;;;;;5010329;28;20316;-89
2022/09/27 05:54:13;;;;;;;;;;;7.00;99.90;;;;;;5010822;28;20373;-87
2022/09/27 05:56:39;;;;;;;;;;;7.00;99.90;;;;;;4976828;28;20440;-87
2022/09/27 05:59:07;;;;;;;;;;;7.00;99.90;;;;;;4993674;28;19917;-85
2022/09/27 06:01:53;;;;;;;;;;;7.00;99.90;;;;;;4992817;28;19910;-88
2022/09/27 06:04:48;;;;;;;;;;;7.00;99.90;;;;;;4993149;28;20361;-88
2022/09/27 06:07:32;;;;;;;;;;;7.00;99.90;;;;;;4992953;28;19916;-88
2022/09/27 06:09:59;;;;;;;;;;;7.00;99.90;;;;;;5009057;28;19956;-87
2022/09/27 06:12:25;;;;;;;;;;;7.00;99.90;;;;;;4993702;28;20009;-86
2022/09/27 06:14:51;;;;;;;;;;;7.00;99.90;;;;;;4975933;28;19910;-87
2022/09/27 06:17:32;;;;;;;;;;;7.00;99.90;;;;;;5008595;28;19913;-87
2022/09/27 06:19:58;;;;;;;;;;;6.90;99.90;;;;;;5008902;28;19913;-87
2022/09/27 06:22:24;;;;;;;;;;;6.90;99.90;;;;;;4975710;28;19910;-86
2022/09/27 06:24:58;;;;;;;;;;;6.80;99.90;;;;;;5008326;28;19949;-88
2022/09/27 06:27:29;;;;;;;;;;;6.90;99.90;;;;;;4992347;28;19980;-87
2022/09/27 06:30:06;;;;;;;;;;;6.90;99.90;;;;;;4991908;28;19953;-87
2022/09/27 06:32:59;;;;;;;;;;;6.90;99.90;;;;;;4978702;28;19910;-87
2022/09/27 06:35:48;;;;;;;;;;;6.90;99.90;;;;;;4991897;28;19956;-88
2022/09/27 06:38:15;;;;;;;;;;;6.90;99.90;;;;;;4977911;28;19913;-87
2022/09/27 06:40:48;;;;;;;;;;;7.00;99.90;;;;;;4980261;28;19920;-87
2022/09/27 06:43:40;;;;;;;;;;;7.00;99.90;;;;;;4995074;28;20577;-87
2022/09/27 06:46:38;;;;;;;;;;;7.00;99.90;;;;;;4996133;28;19909;-86
2022/09/27 06:49:10;;;;;;;;;;;7.00;99.90;;;;;;4997127;28;19988;-86
2022/09/27 06:51:38;;;;;;;;;;;7.00;99.90;;;;;;4979696;28;20008;-86
2022/09/27 06:54:04;;;;;;;;;;;7.00;99.90;;;;;;4979246;28;20345;-87
2022/09/27 06:56:30;;;;;;;;;;;7.00;99.90;;;;;;5012062;28;19921;-86
2022/09/27 07:01:40;;;;;;;;;;;7.00;99.90;;;;;;4996748;28;19992;-86
2022/09/27 07:04:13;;;;;;;;;;;7.00;99.90;;;;;;4997045;28;19910;-87
2022/09/27 07:06:52;;;;;;;;;;;7.00;99.90;;;;;;4995241;28;20339;-87
2022/09/27 07:09:23;;;;;;;;;;;7.00;99.90;;;;;;4995599;28;19937;-86
2022/09/27 07:11:48;;;;;;;;;;;7.00;99.90;;;;;;4979255;28;19917;-86
2022/09/27 07:14:16;;;;;;;;;;;7.00;99.90;;;;;;5011307;28;19916;-87
2022/09/27 07:16:42;;;;;;;;;;;7.00;99.90;;;;;;4995228;28;20292;-86
2022/09/27 07:19:10;;;;;;;;;;;7.10;99.90;;;;;;4979104;28;19945;-87
2022/09/27 07:21:36;;;;;;;;;;;7.20;99.90;;;;;;4978815;28;19910;-87
2022/09/27 07:24:03;;;;;;;;;;;7.20;99.90;;;;;;4979063;28;19909;-87
2022/09/27 07:26:28;;;;;;;;;;;7.30;99.90;;;;;;4979126;28;20770;-88
2022/09/27 07:28:55;;;;;;;;;;;7.40;99.90;;;;;;4979268;28;20008;-87
2022/09/27 07:31:23;;;;;;;;;;;7.40;99.90;;;;;;4979188;28;19918;-87
2022/09/27 07:33:49;;;;;;;;;;;7.40;99.90;;;;;;5010644;28;20017;-86
2022/09/27 07:36:14;;;;;;;;;;;7.40;99.90;;;;;;5011631;28;19917;-87
2022/09/27 07:38:43;;;;;;;;;;;7.40;99.90;;;;;;4995250;28;19999;-87
2022/09/27 07:41:11;;;;;;;;;;;7.40;99.90;;;;;;4978266;28;19914;-87
2022/09/27 07:43:37;;;;;;;;;;;7.30;99.90;;;;;;5011080;28;19964;-87
2022/09/27 07:46:03;;;;;;;;;;;7.40;99.90;;;;;;4978615;28;19913;-87
2022/09/27 07:48:50;;;;;;;;;;;7.30;99.90;;;;;;4994362;28;19910;-88
2022/09/27 07:51:37;;;;;;;;;;;7.20;99.90;;;;;;4994705;28;19996;-87
2022/09/27 07:54:26;;;;;;;;;;;7.20;99.90;;;;;;4976150;28;19913;-88
2022/09/27 08:00:33;;;;;;;;;;;7.30;99.90;;;;;;4996166;28;19960;-87
2022/09/27 08:03:02;;;;;;;;;;;7.30;99.90;;;;;;5010703;28;19909;-88
2022/09/27 08:05:28;;;;;;;;;;;7.50;99.90;;;;;;4994446;28;19910;-88
2022/09/27 08:07:55;;;;;;;;;;;7.50;99.90;;;;;;5007296;28;19917;-88
2022/09/27 08:10:21;;;;;;;;;;;7.60;99.90;;;;;;4978574;28;19913;-87
2022/09/27 08:12:46;;;;;;;;;;;7.60;99.90;;;;;;4977918;28;19917;-88
2022/09/27 08:15:12;;;;;;;;;;;7.70;99.90;;;;;;4977575;28;19913;-88
2022/09/27 08:17:38;;;;;;;;;;;7.60;99.90;;;;;;4993494;28;19921;-87
2022/09/27 08:20:07;;;;;;;;;;;7.50;99.90;;;;;;4977887;28;19916;-88
2022/09/27 08:22:51;;;;;;;;;;;7.40;99.90;;;;;;4994164;28;19917;-86
2022/09/27 08:25:34;;;;;;;;;;;7.30;99.90;;;;;;4979540;28;19916;-87
2022/09/27 08:28:21;;;;;;;;;;;7.20;99.90;;;;;;4980476;28;20060;-86
2022/09/27 08:30:58;;;;;;;;;;;7.20;99.90;;;;;;4978389;28;19917;-86
2022/09/27 08:33:24;;;;;;;;;;;7.30;99.90;;;;;;4976947;28;19910;-87
2022/09/27 08:35:50;;;;;;;;;;;7.40;99.90;;;;;;4977561;28;19920;-86
2022/09/27 08:38:16;;;;;;;;;;;7.50;99.90;;;;;;4994153;28;20383;-88
2022/09/27 08:40:53;;;;;;;;;;;7.40;99.90;;;;;;4978073;28;19910;-88
2022/09/27 08:43:19;;;;;;;;;;;7.40;99.90;;;;;;4977561;28;19909;-87
2022/09/27 08:45:48;;;;;;;;;;;7.30;99.90;;;;;;5009334;28;19924;-87
2022/09/27 08:48:14;;;;;;;;;;;7.50;99.90;;;;;;4993407;28;19914;-87
2022/09/27 08:50:41;;;;;;;;;;;7.80;99.90;;;;;;4976582;28;19913;-87
2022/09/27 08:53:13;;;;;;;;;;;8.30;99.90;;;;;;4995026;28;19988;-88
2022/09/27 08:55:56;;;;;;;;;;;8.50;99.90;;;;;;4994569;28;20281;-88
2022/09/27 08:58:39;;;;;;;;;;;8.40;99.90;;;;;;4979665;28;19917;-85
2022/09/27 09:01:14;;;;;;;;;;;8.20;99.90;;;;;;4977919;28;19920;-85
2022/09/27 09:03:54;;;;;;;;;;;7.90;99.90;;;;;;4978261;28;19910;-85
2022/09/27 09:06:40;;;;;;;;;;;7.80;99.90;;;;;;5010003;28;19916;-84
2022/09/27 09:09:21;;;;;;;;;;;7.70;99.90;;;;;;4973836;28;19949;-87
2022/09/27 09:14:53;;;;;;;;;;;7.60;99.90;;;;;;5009900;28;19910;-88
2022/09/27 09:17:18;;;;;;;;;;;7.60;99.90;;;;;;4993194;28;20257;-87
2022/09/27 09:20:03;;;;;;;;;;;7.60;99.90;;;;;;5008116;28;20376;-87
2022/09/27 09:22:47;;;;;;;;;;;7.50;99.90;;;;;;4993227;28;19917;-88
2022/09/27 09:25:18;;;;;;;;;;;7.30;99.90;;;;;;4993578;28;19909;-88
2022/09/27 09:28:04;;;;;;;;;;;7.30;99.90;;;;;;4993261;28;19953;-88
2022/09/27 09:31:06;;;;;;;;;;;7.30;99.90;;;;;;4973057;28;20385;-87
2022/09/27 09:33:44;;;;;;;;;;;7.30;99.90;;;;;;4957395;28;20405;-88
2022/09/27 09:36:23;;;;;;;;;;;7.30;99.90;;;;;;4972886;28;19909;-88
2022/09/27 09:38:51;;;;;;;;;;;7.10;99.90;;;;;;4977131;28;19910;-89
2022/09/27 09:41:30;;;;;;;;;;;7.20;99.90;;;;;;5009666;28;19910;-89
2022/09/27 09:44:01;;;;;;;;;;;7.40;99.90;;;;;;5009052;28;19913;-87
2022/09/27 09:46:47;;;;;;;;;;;7.40;99.90;;;;;;5009103;28;19914;-87
2022/09/27 09:49:13;;;;;;;;;;;7.40;99.90;;;;;;4976513;28;19909;-88
2022/09/27 09:51:49;;;;;;;;;;;7.50;99.90;;;;;;4992615;28;19913;-87
2022/09/27 09:54:25;;;;;;;;;;;7.30;99.90;;;;;;4976902;28;19909;-87
2022/09/27 09:57:00;;;;;;;;;;;7.40;99.90;;;;;;4977592;28;20384;-89
2022/09/27 09:59:29;;;;;;;;;;;7.40;99.90;;;;;;4977336;28;19909;-89
2022/09/27 10:02:00;;;;;;;;;;;7.40;99.90;;;;;;5009215;28;19921;-89
2022/09/27 10:04:27;;;;;;;;;;;7.50;99.90;;;;;;4976909;28;19916;-87
2022/09/27 10:06:56;;;;;;;;;;;7.60;99.90;;;;;;4976032;28;19920;-88
2022/09/27 10:09:25;;;;;;;;;;;7.70;99.90;;;;;;4976271;28;19910;-88
2022/09/27 10:12:17;;;;;;;;;;;7.70;99.90;;;;;;4994809;28;19917;-87
2022/09/27 10:14:45;;;;;;;;;;;7.70;99.90;;;;;;4980972;28;20690;-88
2022/09/27 10:17:13;;;;;;;;;;;7.70;99.90;;;;;;4997359;28;19913;-89
2022/09/27 10:19:40;;;;;;;;;;;7.80;99.90;;;;;;4980322;28;19917;-88
2022/09/27 10:22:12;;;;;;;;;;;7.80;99.90;;;;;;4980333;28;19906;-88
2022/09/27 10:24:54;;;;;;;;;;;7.80;99.90;;;;;;5012464;28;19917;-89
2022/09/27 10:27:40;;;;;;;;;;;7.70;99.90;;;;;;4996614;28;19916;-87
2022/09/27 10:30:20;;;;;;;;;;;7.70;99.90;;;;;;5012820;28;19923;-88
2022/09/27 10:32:49;;;;;;;;;;;7.80;99.90;;;;;;4980179;28;19914;-87
2022/09/27 10:35:50;;;;;;;;;;;8.00;99.90;;;;;;4996188;28;20351;-87
2022/09/27 10:38:28;;;;;;;;;;;8.20;99.90;;;;;;4981803;28;19933;-87
2022/09/27 10:41:23;;;;;;;;;;;8.50;99.90;;;;;;4981616;28;19913;-88
2022/09/27 10:43:49;;;;;;;;;;;8.70;99.90;;;;;;4980245;28;19914;-88
2022/09/27 10:46:27;;;;;;;;;;;9.00;99.90;;;;;;4996401;28;19906;-87
2022/09/27 10:49:20;;;;;;;;;;;9.10;99.90;;;;;;5012660;28;19913;-87
2022/09/27 10:51:53;;;;;;;;;;;9.10;99.90;;;;;;4996106;28;19940;-87
2022/09/27 10:54:21;;;;;;;;;;;9.00;99.90;;;;;;4979799;28;20254;-87
2022/09/27 10:56:54;;;;;;;;;;;9.20;99.90;;;;;;4980016;28;20333;-87
2022/09/27 10:59:20;;;;;;;;;;;9.30;99.90;;;;;;4980002;28;19909;-86
2022/09/27 11:01:49;;;;;;;;;;;9.50;99.90;;;;;;5012664;28;19909;-87
2022/09/27 11:04:30;;;;;;;;;;;9.70;99.90;;;;;;4981921;28;20389;-89
2022/09/27 11:07:11;;;;;;;;;;;10.10;99.90;;;;;;4980005;28;20393;-88
2022/09/27 11:09:45;;;;;;;;;;;10.20;99.90;;;;;;4979893;28;19956;-88
2022/09/27 11:12:14;;;;;;;;;;;10.10;99.90;;;;;;4979892;28;20008;-85
2022/09/27 11:14:44;;;;;;;;;;;9.90;99.90;;;;;;4996587;28;19914;-85
2022/09/27 11:17:19;;;;;;;;;;;9.80;99.90;;;;;;4995846;28;20375;-85
2022/09/27 11:20:06;;;;;;;;;;;9.60;99.90;;;;;;5012244;28;19910;-88
2022/09/27 11:22:34;;;;;;;;;;;9.40;99.90;;;;;;4995352;28;19917;-87
2022/09/27 11:25:00;;;;;;;;;;;9.10;99.90;;;;;;5011637;28;19909;-88
2022/09/27 11:27:27;;;;;;;;;;;9.00;99.90;;;;;;4995863;28;20322;-88
2022/09/27 11:29:59;;;;;;;;;;;9.00;99.90;;;;;;4995687;28;19945;-87
2022/09/27 11:33:01;;;;;;;;;;;9.20;99.90;;;;;;4995579;28;19917;-87
2022/09/27 11:35:43;;;;;;;;;;;9.30;99.90;;;;;;4995607;28;19910;-89
2022/09/27 11:38:09;;;;;;;;;;;9.20;99.90;;;;;;4979505;28;20334;-89
2022/09/27 11:40:53;;;;;;;;;;;9.30;99.90;;;;;;4995764;28;19964;-89
2022/09/27 11:43:21;;;;;;;;;;;9.20;99.90;;;;;;4994925;28;19910;-88
2022/09/27 11:46:05;;;;;;;;;;;9.00;99.90;;;;;;4995083;28;19910;-88
2022/09/27 11:48:51;;;;;;;;;;;8.80;99.90;;;;;;4979494;28;20281;-88
2022/09/27 11:51:23;;;;;;;;;;;8.90;99.90;;;;;;4994565;28;19913;-86
2022/09/27 11:53:55;;;;;;;;;;;9.30;99.90;;;;;;4994787;28;19910;-86
2022/09/27 11:56:35;;;;;;;;;;;9.40;99.90;;;;;;4994794;28;19913;-87
2022/09/27 11:59:04;;;;;;;;;;;9.50;99.90;;;;;;4994389;28;19959;-86
2022/09/27 12:01:30;;;;;;;;;;;9.40;99.90;;;;;;4994258;28;19937;-86
2022/09/27 12:03:55;;;;;;;;;;;9.40;99.90;;;;;;4995360;28;19917;-87
2022/09/27 12:06:45;;;;;;;;;;;9.50;99.90;;;;;;4994511;28;19906;-87
2022/09/27 12:09:18;;;;;;;;;;;9.50;99.90;;;;;;4994659;28;20036;-87
2022/09/27 12:11:47;;;;;;;;;;;10.10;99.90;;;;;;5010833;28;20485;-86
2022/09/27 12:14:14;;;;;;;;;;;10.60;99.90;;;;;;5010676;28;19913;-87
2022/09/27 12:16:41;;;;;;;;;;;10.70;99.90;;;;;;4993964;28;19921;-87
2022/09/27 12:19:13;;;;;;;;;;;11.00;99.90;;;;;;4978023;28;19910;-86
2022/09/27 12:21:50;;;;;;;;;;;10.90;99.90;;;;;;4979887;28;19914;-86
2022/09/27 12:24:20;;;;;;;;;;;10.80;99.90;;;;;;4977962;28;19918;-86
2022/09/27 12:27:02;;;;;;;;;;;10.30;99.90;;;;;;4980129;28;19917;-86
2022/09/27 12:29:37;;;;;;;;;;;10.10;99.90;;;;;;4994259;28;20047;-86
2022/09/27 12:32:15;;;;;;;;;;;10.00;99.90;;;;;;4977973;28;20380;-86
2022/09/27 12:34:49;;;;;;;;;;;9.90;99.90;;;;;;5010550;28;19961;-87
2022/09/27 12:37:18;;;;;;;;;;;9.70;99.90;;;;;;4993941;28;19913;-86
2022/09/27 12:39:56;;;;;;;;;;;9.50;99.90;;;;;;4977999;28;19969;-86
2022/09/27 12:42:40;;;;;;;;;;;9.60;99.90;;;;;;4994076;28;19920;-87
2022/09/27 12:45:15;;;;;;;;;;;9.90;99.90;;;;;;4979008;28;19909;-86
2022/09/27 12:47:47;;;;;;;;;;;9.70;99.90;;;;;;4993360;28;20381;-86
2022/09/27 12:50:29;;;;;;;;;;;9.40;99.90;;;;;;4978270;28;19913;-85
2022/09/27 12:53:03;;;;;;;;;;;8.90;99.90;;;;;;4993682;28;20090;-87
2022/09/27 12:55:43;;;;;;;;;;;8.50;99.90;;;;;;5010234;28;19914;-87
2022/09/27 12:58:09;;;;;;;;;;;8.20;99.90;;;;;;4977926;28;19909;-87
2022/09/27 13:00:54;;;;;;;;;;;8.10;99.90;;;;;;5010473;28;19916;-87
2022/09/27 13:03:28;;;;;;;;;;;7.80;99.90;;;;;;5009775;28;19935;-86
2022/09/27 13:06:11;;;;;;;;;;;7.60;99.90;;;;;;4978804;28;19917;-86
2022/09/27 13:08:56;;;;;;;;;;;7.40;99.90;;;;;;4993864;28;19909;-86
2022/09/27 13:11:29;;;;;;;;;;;7.20;99.90;;;;;;4993767;28;19934;-87
2022/09/27 13:13:56;;;;;;;;;;;7.00;99.90;;;;;;4977431;28;20269;-86
2022/09/27 13:16:24;;;;;;;;;;;6.90;99.90;;;;;;4978057;28;20013;-88
2022/09/27 13:18:51;;;;;;;;;;;6.90;99.90;;;;;;4978288;28;19918;-88
2022/09/27 13:21:36;;;;;;;;;;;6.90;99.90;;;;;;5010577;28;20048;-88
2022/09/27 13:24:31;;;;;;;;;;;7.20;99.90;;;;;;4993529;28;19909;-85
2022/09/27 13:27:00;;;;;;;;;;;7.80;99.90;;;;;;4977274;28;19917;-87
2022/09/27 13:29:27;;;;;;;;;;;7.90;99.90;;;;;;4977591;28;19945;-88
2022/09/27 13:32:00;;;;;;;;;;;8.10;99.90;;;;;;5010241;28;20009;-88
2022/09/27 13:34:52;;;;;;;;;;;8.50;99.90;;;;;;4993529;28;19909;-87
2022/09/27 13:37:25;;;;;;;;;;;8.70;99.90;;;;;;5010348;28;19918;-88
2022/09/27 13:40:09;;;;;;;;;;;8.90;99.90;;;;;;4993929;28;19910;-88
2022/09/27 13:42:52;;;;;;;;;;;9.00;99.90;;;;;;4993696;28;19917;-88
2022/09/27 13:45:25;;;;;;;;;;;9.10;99.90;;;;;;5009735;28;19920;-88
2022/09/27 13:47:50;;;;;;;;;;;9.10;99.90;;;;;;4993242;28;19909;-89
2022/09/27 13:50:25;;;;;;;;;;;9.10;99.90;;;;;;4993558;28;20348;-88
2022/09/27 13:53:05;;;;;;;;;;;9.20;99.90;;;;;;4993230;28;19914;-88
2022/09/27 13:55:39;;;;;;;;;;;9.70;99.90;;;;;;4977076;28;19910;-88
2022/09/27 13:58:15;;;;;;;;;;;10.10;99.90;;;;;;5009586;28;19913;-88
2022/09/27 14:00:46;;;;;;;;;;;10.30;99.90;;;;;;4977494;28;19909;-88
2022/09/27 14:06:21;;;;;;;;;;;10.50;99.90;;;;;;4991798;28;19997;-88
2022/09/27 14:08:56;;;;;;;;;;;10.50;99.90;;;;;;4993411;28;19912;-88
2022/09/27 14:11:32;;;;;;;;;;;10.20;99.90;;;;;;4977458;28;19964;-88
2022/09/27 14:13:58;;;;;;;;;;;10.00;99.90;;;;;;5009689;28;19937;-88
2022/09/27 14:16:32;;;;;;;;;;;10.10;99.90;;;;;;4977650;28;20001;-88
2022/09/27 14:18:58;;;;;;;;;;;10.20;99.90;;;;;;4977268;28;20000;-87
2022/09/27 14:21:37;;;;;;;;;;;10.30;99.90;;;;;;5009847;28;19914;-87
2022/09/27 14:24:28;;;;;;;;;;;10.50;99.90;;;;;;4993503;28;19934;-87
2022/09/27 14:27:16;;;;;;;;;;;10.50;99.90;;;;;;4993011;28;20285;-86
2022/09/27 14:29:52;;;;;;;;;;;10.30;99.90;;;;;;4992840;28;19913;-86
2022/09/27 14:32:23;;;;;;;;;;;10.00;99.90;;;;;;5009342;28;19917;-86
2022/09/27 14:38:10;;;;;;;;;;;10.00;99.90;;;;;;4989139;28;19914;-88
2022/09/27 14:40:42;;;;;;;;;;;10.10;99.90;;;;;;5008834;28;19910;-87
2022/09/27 14:43:18;;;;;;;;;;;10.10;99.90;;;;;;4976497;28;19913;-87
2022/09/27 14:45:46;;;;;;;;;;;9.90;99.90;;;;;;4992702;28;19910;-86
2022/09/27 14:48:27;;;;;;;;;;;9.80;99.90;;;;;;4976484;28;20601;-87
2022/09/27 14:50:55;;;;;;;;;;;9.70;99.90;;;;;;4992263;28;19920;-86
2022/09/27 14:53:22;;;;;;;;;;;9.70;99.90;;;;;;4976430;28;19913;-87
2022/09/27 14:55:48;;;;;;;;;;;9.80;99.90;;;;;;5008979;28;19956;-87
2022/09/27 14:58:14;;;;;;;;;;;9.80;99.90;;;;;;4976855;28;19909;-86
2022/09/27 15:00:44;;;;;;;;;;;9.60;99.90;;;;;;4979674;28;19910;-87
2022/09/27 15:03:17;;;;;;;;;;;9.70;99.90;;;;;;5011589;28;19916;-86
2022/09/27 15:05:43;;;;;;;;;;;9.70;99.90;;;;;;4995877;28;20007;-87
2022/09/27 15:08:10;;;;;;;;;;;9.50;99.90;;;;;;4996454;28;20346;-86
2022/09/27 15:10:37;;;;;;;;;;;9.30;99.90;;;;;;4979258;28;20342;-86
2022/09/27 15:13:04;;;;;;;;;;;9.00;99.90;;;;;;4995381;28;19913;-86
2022/09/27 15:15:31;;;;;;;;;;;9.00;99.90;;;;;;4995505;28;20005;-86
2022/09/27 15:17:58;;;;;;;;;;;8.80;99.90;;;;;;4996597;28;20385;-86
2022/09/27 15:20:26;;;;;;;;;;;8.80;99.90;;;;;;4995865;28;19921;-87
2022/09/27 15:22:53;;;;;;;;;;;8.70;99.90;;;;;;4997023;28;19909;-86